Melrose Park, Pennsylvania
Current Conditions -  °F | °C
As of 9:54 PM on Tuesday 21 Oct 2014 (Local Time) from KPNE Reporting Station
Overcast Overcast  
Wind Chill: 60°   Ceiling: 6500
Heat Index: 60°   Visibility: 10mi
Dew Point: 52°   Wind: 9mph
Humidity: 75%   Direction: 50°NE
Pressure: 29.9"   Gusts: NA
Location:  40.0732°N, 75.1248°W
Report Text: KPNE 220154Z 05008KT 10SM FEW050 BKN065 OVC095 16/11 A2990 RMK AO2 RAE06 SLP125 P0000 T01560111 $
Loading
Personal Weather Stations






























Interactive Weather Map
Tropical Storm Tracking
New forecast layout! Learn more

10-Day Weather Forecast

Advertisements
Track Severe Weather on mobile